createdAt,value
2023-02-16T00:00:19.712Z,101236.35
2023-02-16T00:03:14.120Z,101233.42
2023-02-16T00:05:42.364Z,101225.23
2023-02-16T00:08:10.220Z,101219.66
2023-02-16T00:10:39.479Z,101218.47
2023-02-16T00:13:47.153Z,101216.54
2023-02-16T00:16:24.650Z,101210.02
2023-02-16T00:18:53.334Z,101207.83
2023-02-16T00:21:22.143Z,101211.04
2023-02-16T00:23:50.299Z,101210.64
2023-02-16T00:26:24.601Z,101205.98
2023-02-16T00:28:54.896Z,101201.20
2023-02-16T00:31:27.880Z,101193.52
2023-02-16T00:33:56.612Z,101188.65
2023-02-16T00:36:25.297Z,101184.02
2023-02-16T00:38:53.275Z,101178.23
2023-02-16T00:41:44.136Z,101176.52
2023-02-16T00:44:20.112Z,101171.05
2023-02-16T00:46:48.309Z,101166.92
2023-02-16T00:49:18.497Z,101160.49
2023-02-16T00:51:46.897Z,101155.20
2023-02-16T00:54:15.385Z,101152.27
2023-02-16T00:56:44.046Z,101152.59
2023-02-16T00:59:19.686Z,101146.95
2023-02-16T01:01:48.073Z,101140.47
2023-02-16T01:04:23.589Z,101135.13
2023-02-16T01:07:10.493Z,101124.73
2023-02-16T01:09:57.066Z,101120.88
2023-02-16T01:12:25.173Z,101121.84
2023-02-16T01:14:55.659Z,101121.44
2023-02-16T01:17:26.254Z,101118.14
2023-02-16T01:19:57.041Z,101115.51
2023-02-16T01:22:24.869Z,101114.77
2023-02-16T01:24:52.900Z,101112.14
2023-02-16T01:27:20.839Z,101108.65
2023-02-16T01:29:48.589Z,101108.02
2023-02-16T01:32:17.247Z,101105.94
2023-02-16T01:34:45.234Z,101103.82
2023-02-16T01:37:15.855Z,101098.84
2023-02-16T01:39:44.898Z,101100.67
2023-02-16T01:42:15.496Z,101098.27
2023-02-16T01:44:49.778Z,101096.14
2023-02-16T01:47:26.256Z,101099.68
2023-02-16T01:49:54.396Z,101098.27
2023-02-16T01:52:33.092Z,101100.92
2023-02-16T01:55:14.024Z,101097.30
2023-02-16T01:58:31.425Z,101097.61
2023-02-16T02:00:59.172Z,101101.30
2023-02-16T02:03:52.660Z,101100.27
2023-02-16T02:06:28.009Z,101097.14
2023-02-16T02:09:03.601Z,101094.89
2023-02-16T02:11:54.061Z,101086.83
2023-02-16T02:14:37.998Z,101085.76
2023-02-16T02:17:11.250Z,101086.22
2023-02-16T02:19:56.605Z,101084.48
2023-02-16T02:23:23.454Z,101082.38
2023-02-16T02:26:19.358Z,101079.93
2023-02-16T02:28:50.724Z,101080.02
2023-02-16T02:31:37.929Z,101081.38
2023-02-16T02:34:21.304Z,101075.05
2023-02-16T02:37:20.578Z,101072.16
2023-02-16T02:39:54.681Z,101067.98
2023-02-16T02:42:51.166Z,101064.70
2023-02-16T02:45:32.309Z,101060.10
2023-02-16T02:48:00.321Z,101055.68
2023-02-16T02:50:37.446Z,101056.00
2023-02-16T02:53:12.379Z,101063.64
2023-02-16T02:56:05.668Z,101064.42
2023-02-16T02:58:55.386Z,101061.76
2023-02-16T03:01:24.692Z,101054.69
2023-02-16T03:03:56.182Z,101055.20
2023-02-16T03:06:27.791Z,101053.86
2023-02-16T03:09:01.227Z,101046.40
2023-02-16T03:11:48.636Z,101046.40
2023-02-16T03:14:30.128Z,101038.08
2023-02-16T03:17:19.721Z,101033.82
2023-02-16T03:20:09.792Z,101026.34
2023-02-16T03:22:58.316Z,101027.53
2023-02-16T03:25:50.070Z,101022.36
2023-02-16T03:28:40.300Z,101018.89
2023-02-16T03:31:12.946Z,101020.20
2023-02-16T03:33:41.814Z,101014.92
2023-02-16T03:36:10.159Z,101014.52
2023-02-16T03:38:39.544Z,101009.38
2023-02-16T03:41:07.353Z,101009.86
2023-02-16T03:43:35.272Z,101010.02
2023-02-16T03:46:03.399Z,101008.63
2023-02-16T03:48:31.695Z,101007.23
2023-02-16T03:50:59.527Z,101006.04
2023-02-16T03:53:27.416Z,101001.70
2023-02-16T03:55:55.353Z,100996.28
2023-02-16T03:58:25.302Z,100993.70
2023-02-16T04:00:53.581Z,100990.27
2023-02-16T04:03:21.644Z,100988.22
2023-02-16T04:05:49.535Z,100986.04
2023-02-16T04:08:17.690Z,100982.95
2023-02-16T04:10:45.658Z,100979.02
2023-02-16T04:13:13.835Z,100972.45
2023-02-16T04:15:42.338Z,100967.26
2023-02-16T04:18:10.278Z,100963.45
2023-02-16T04:20:38.365Z,100966.66
2023-02-16T04:23:07.019Z,100965.61
2023-02-16T04:25:35.108Z,100963.38
2023-02-16T04:28:03.036Z,100959.96
2023-02-16T04:30:32.459Z,100951.33
2023-02-16T04:33:00.669Z,100949.47
2023-02-16T04:35:28.620Z,100947.27
2023-02-16T04:37:56.565Z,100949.69
2023-02-16T04:40:24.386Z,100949.56
2023-02-16T04:42:52.419Z,100952.64
2023-02-16T04:45:20.685Z,100952.41
2023-02-16T04:47:48.782Z,100956.98
2023-02-16T04:50:16.821Z,100958.17
2023-02-16T04:52:45.129Z,100963.64
2023-02-16T04:55:12.904Z,100963.96
2023-02-16T04:57:40.803Z,100960.40
2023-02-16T05:00:11.844Z,100957.50
2023-02-16T05:02:40.065Z,100960.08
2023-02-16T05:05:08.403Z,100954.01
2023-02-16T05:07:37.143Z,100952.17
2023-02-16T05:10:06.544Z,100954.76
2023-02-16T05:12:53.455Z,100948.86
2023-02-16T05:15:21.717Z,100950.77
2023-02-16T05:17:49.704Z,100947.57
2023-02-16T05:20:18.273Z,100947.25
2023-02-16T05:22:46.459Z,100951.17
2023-02-16T05:25:14.360Z,100955.09
2023-02-16T05:27:42.202Z,100953.91
2023-02-16T05:30:11.160Z,100951.73
2023-02-16T05:32:39.037Z,100949.01
2023-02-16T05:35:06.984Z,100944.10
2023-02-16T05:37:34.899Z,100945.11
2023-02-16T05:40:02.760Z,100937.59
2023-02-16T05:42:30.924Z,100938.59
2023-02-16T05:44:58.878Z,100941.99
2023-02-16T05:47:26.667Z,100944.55
2023-02-16T05:49:54.609Z,100948.52
2023-02-16T05:52:22.620Z,100945.15
2023-02-16T05:54:50.447Z,100943.98
2023-02-16T05:57:18.460Z,100937.77
2023-02-16T05:59:46.529Z,100933.41
2023-02-16T06:02:14.922Z,100929.02
2023-02-16T06:04:42.998Z,100933.80
2023-02-16T06:07:12.049Z,100934.55
2023-02-16T06:09:41.741Z,100934.16
2023-02-16T06:12:09.572Z,100931.70
2023-02-16T06:14:37.488Z,100931.98
2023-02-16T06:17:05.451Z,100932.11
2023-02-16T06:19:33.422Z,100926.11
2023-02-16T06:22:01.300Z,100921.63
2023-02-16T06:24:29.605Z,100930.77
2023-02-16T06:26:57.678Z,100939.39
2023-02-16T06:29:25.650Z,100943.39
2023-02-16T06:31:53.508Z,100940.92
2023-02-16T06:34:21.544Z,100936.12
2023-02-16T06:36:49.421Z,100933.36
2023-02-16T06:39:17.339Z,100931.41
2023-02-16T06:41:45.204Z,100929.18
2023-02-16T06:44:15.380Z,100932.03
2023-02-16T06:46:45.930Z,100923.48
2023-02-16T06:49:18.206Z,100921.24
2023-02-16T06:51:47.803Z,100915.13
2023-02-16T06:54:16.543Z,100913.24
2023-02-16T06:56:44.687Z,100916.19
2023-02-16T06:59:13.545Z,100914.77
2023-02-16T07:01:42.971Z,100919.96
2023-02-16T07:04:12.183Z,100916.52
2023-02-16T07:06:40.106Z,100912.63
2023-02-16T07:09:08.247Z,100915.80
2023-02-16T07:11:37.108Z,100914.08
2023-02-16T07:14:05.008Z,100903.64
2023-02-16T07:16:32.812Z,100908.23
2023-02-16T07:19:00.752Z,100905.66
2023-02-16T07:21:28.635Z,100903.41
2023-02-16T07:23:56.570Z,100902.72
2023-02-16T07:26:24.628Z,100902.41
2023-02-16T07:28:52.740Z,100900.59
2023-02-16T07:31:21.095Z,100901.84
2023-02-16T07:33:49.273Z,100900.34
2023-02-16T07:36:17.078Z,100902.09
2023-02-16T07:38:45.210Z,100901.96
2023-02-16T07:41:13.489Z,100899.11
2023-02-16T07:43:42.989Z,100902.18
2023-02-16T07:46:11.460Z,100895.67
2023-02-16T07:48:39.788Z,100895.15
2023-02-16T07:51:08.358Z,100894.09
2023-02-16T07:53:36.380Z,100898.15
2023-02-16T07:56:04.772Z,100895.70
2023-02-16T07:58:32.838Z,100899.21
2023-02-16T08:01:10.323Z,100897.95
2023-02-16T08:03:39.119Z,100896.90
2023-02-16T08:06:08.793Z,100888.81
2023-02-16T08:08:38.061Z,100885.87
2023-02-16T08:11:16.282Z,100880.04
2023-02-16T08:13:45.838Z,100882.86
2023-02-16T08:16:20.133Z,100883.64
2023-02-16T08:18:48.695Z,100877.98
2023-02-16T08:21:19.562Z,100877.40
2023-02-16T08:23:54.220Z,100879.04
2023-02-16T08:26:23.984Z,100877.80
2023-02-16T08:28:52.922Z,100877.59
2023-02-16T08:31:23.747Z,100875.19
2023-02-16T08:33:53.841Z,100870.58
2023-02-16T08:36:25.139Z,100875.32
2023-02-16T08:38:54.576Z,100875.58
2023-02-16T08:41:24.581Z,100873.65
2023-02-16T08:43:52.432Z,100873.29
2023-02-16T08:46:21.800Z,100876.48
2023-02-16T08:48:49.692Z,100871.31
2023-02-16T08:51:20.032Z,100871.92
2023-02-16T08:53:47.839Z,100870.81
2023-02-16T08:56:17.000Z,100873.30
2023-02-16T08:58:44.948Z,100873.54
2023-02-16T09:01:15.358Z,100872.59
2023-02-16T09:03:46.385Z,100875.21
2023-02-16T09:06:17.268Z,100872.56
2023-02-16T09:08:46.689Z,100870.03
2023-02-16T09:11:16.452Z,100875.21
2023-02-16T09:13:45.083Z,100876.30
2023-02-16T09:16:16.471Z,100877.72
2023-02-16T09:18:45.606Z,100874.88
2023-02-16T09:21:33.035Z,100873.73
2023-02-16T09:24:05.355Z,100875.15
2023-02-16T09:26:38.547Z,100867.66
2023-02-16T09:29:07.327Z,100867.02
2023-02-16T09:31:37.547Z,100866.35
2023-02-16T09:34:18.501Z,100865.87
2023-02-16T09:36:47.468Z,100862.14
2023-02-16T09:39:17.176Z,100856.20
2023-02-16T09:42:06.852Z,100857.92
2023-02-16T09:44:56.748Z,100853.52
2023-02-16T09:47:31.160Z,100854.91
2023-02-16T09:50:06.452Z,100856.48
2023-02-16T09:52:41.036Z,100854.61
2023-02-16T09:55:18.169Z,100855.66
2023-02-16T09:58:01.341Z,100853.10
2023-02-16T10:00:46.942Z,100846.60
2023-02-16T10:03:46.020Z,100842.86
2023-02-16T10:06:14.810Z,100838.39
2023-02-16T10:08:58.816Z,100840.11
2023-02-16T10:11:39.104Z,100841.48
2023-02-16T10:14:25.053Z,100837.55
2023-02-16T10:17:15.418Z,100839.09
2023-02-16T10:19:52.884Z,100834.61
2023-02-16T10:22:29.246Z,100833.91
2023-02-16T10:25:36.000Z,100833.04
2023-02-16T10:28:18.242Z,100831.30
2023-02-16T10:31:26.626Z,100834.52
2023-02-16T10:34:26.737Z,100832.11
2023-02-16T10:37:19.737Z,100833.27
2023-02-16T10:40:06.229Z,100831.55
2023-02-16T10:43:00.831Z,100825.34
2023-02-16T10:45:52.726Z,100820.36
2023-02-16T10:48:22.466Z,100812.98
2023-02-16T10:51:09.342Z,100810.23
2023-02-16T10:53:51.577Z,100811.73
2023-02-16T10:56:42.926Z,100805.52
2023-02-16T10:59:38.840Z,100799.48
2023-02-16T11:02:30.634Z,100797.39
2023-02-16T11:04:59.731Z,100797.34
2023-02-16T11:15:06.431Z,100769.89
2023-02-16T11:18:05.053Z,100773.98
2023-02-16T11:20:54.074Z,100768.57
2023-02-16T11:23:28.207Z,100769.04
2023-02-16T11:25:58.350Z,100772.45
2023-02-16T11:28:32.331Z,100770.69
2023-02-16T11:31:10.265Z,100764.98
2023-02-16T11:33:40.472Z,100762.35
2023-02-16T11:36:33.708Z,100761.06
2023-02-16T11:39:15.620Z,100764.42
2023-02-16T11:41:52.012Z,100768.83
2023-02-16T11:44:31.942Z,100767.92
2023-02-16T11:47:04.865Z,100766.67
2023-02-16T11:49:42.258Z,100761.98
2023-02-16T11:52:31.893Z,100759.71
2023-02-16T11:55:02.208Z,100759.00
2023-02-16T11:57:37.468Z,100756.18
2023-02-16T12:00:18.426Z,100759.91
2023-02-16T12:03:03.245Z,100759.55
2023-02-16T12:05:54.870Z,100757.66
2023-02-16T12:08:51.969Z,100754.53
2023-02-16T12:12:17.553Z,100754.80
2023-02-16T12:14:51.479Z,100754.16
2023-02-16T12:17:57.040Z,100750.15
2023-02-16T12:20:39.981Z,100745.07
2023-02-16T12:23:10.691Z,100744.83
2023-02-16T12:25:58.959Z,100743.13
2023-02-16T12:28:56.293Z,100746.40
2023-02-16T12:31:56.763Z,100743.93
2023-02-16T12:34:53.701Z,100739.80
2023-02-16T12:37:33.837Z,100737.36
2023-02-16T12:40:07.837Z,100739.85
2023-02-16T12:42:57.132Z,100741.35
2023-02-16T12:45:31.708Z,100736.16
2023-02-16T12:48:34.101Z,100731.34
2023-02-16T12:51:07.378Z,100735.48
2023-02-16T12:54:00.351Z,100731.36
2023-02-16T12:56:34.699Z,100733.23
2023-02-16T12:59:16.757Z,100731.58
2023-02-16T13:01:48.316Z,100728.06
2023-02-16T13:04:20.104Z,100724.52
2023-02-16T13:07:00.164Z,100725.91
2023-02-16T13:09:44.725Z,100722.95
2023-02-16T13:12:34.864Z,100722.56
2023-02-16T13:15:06.688Z,100726.48
2023-02-16T13:17:41.513Z,100722.31
2023-02-16T13:20:16.819Z,100719.23
2023-02-16T13:23:03.009Z,100719.61
2023-02-16T13:25:53.511Z,100716.34
2023-02-16T13:28:46.122Z,100715.31
2023-02-16T13:31:23.401Z,100714.84
2023-02-16T13:34:13.021Z,100714.31
2023-02-16T13:36:55.318Z,100715.39
2023-02-16T13:39:26.529Z,100714.92
2023-02-16T13:42:23.867Z,100716.68
2023-02-16T13:45:10.355Z,100718.98
2023-02-16T13:47:41.057Z,100716.80
2023-02-16T13:50:33.995Z,100716.66
2023-02-16T13:53:19.034Z,100711.02
2023-02-16T13:55:48.207Z,100706.90
2023-02-16T13:58:16.296Z,100706.55
2023-02-16T14:00:50.851Z,100703.80
2023-02-16T14:03:21.706Z,100697.63
2023-02-16T14:05:55.862Z,100695.59
2023-02-16T14:08:25.580Z,100700.10
2023-02-16T14:10:53.637Z,100694.66
2023-02-16T14:13:31.321Z,100698.83
2023-02-16T14:16:09.038Z,100696.96
2023-02-16T14:18:41.076Z,100705.11
2023-02-16T14:21:37.919Z,100703.96
2023-02-16T14:24:12.680Z,100696.48
2023-02-16T14:27:02.957Z,100696.85
2023-02-16T14:29:59.441Z,100700.88
2023-02-16T14:32:38.748Z,100699.04
2023-02-16T14:35:17.164Z,100702.33
2023-02-16T14:37:55.440Z,100699.25
2023-02-16T14:40:53.504Z,100703.04
2023-02-16T14:43:30.479Z,100697.89
2023-02-16T14:46:26.466Z,100696.52
2023-02-16T14:49:34.713Z,100696.89
2023-02-16T14:53:04.593Z,100698.63
2023-02-16T14:55:40.769Z,100700.93
2023-02-16T14:58:30.683Z,100702.86
2023-02-16T15:01:25.296Z,100699.83
2023-02-16T15:03:55.680Z,100698.50
2023-02-16T15:06:44.582Z,100694.42
2023-02-16T15:09:20.768Z,100693.29
2023-02-16T15:12:14.486Z,100695.41
2023-02-16T15:14:48.502Z,100694.11
2023-02-16T15:17:35.559Z,100694.00
2023-02-16T15:20:31.743Z,100694.08
2023-02-16T15:23:01.550Z,100692.27
2023-02-16T15:25:33.025Z,100697.15
2023-02-16T15:28:22.593Z,100698.58
2023-02-16T15:30:54.615Z,100696.07
2023-02-16T15:33:25.446Z,100698.32
2023-02-16T15:35:57.370Z,100698.02
2023-02-16T15:38:38.218Z,100698.41
2023-02-16T15:41:10.288Z,100698.45
2023-02-16T15:43:47.768Z,100701.23
2023-02-16T15:46:37.174Z,100701.29
2023-02-16T15:49:22.471Z,100700.51
2023-02-16T15:51:50.319Z,100699.86
2023-02-16T15:54:28.811Z,100698.90
2023-02-16T15:57:22.758Z,100699.13
2023-02-16T15:59:57.180Z,100701.08
2023-02-16T16:02:34.765Z,100701.13
2023-02-16T16:05:06.482Z,100698.08
2023-02-16T16:07:37.725Z,100692.27
2023-02-16T16:10:28.679Z,100691.27
2023-02-16T16:13:09.969Z,100691.82
2023-02-16T16:15:45.070Z,100699.21
2023-02-16T16:18:53.450Z,100698.89
2023-02-16T16:21:24.089Z,100696.16
2023-02-16T16:24:00.155Z,100692.59
2023-02-16T16:26:31.787Z,100692.25
2023-02-16T16:28:59.985Z,100694.16
2023-02-16T16:31:28.258Z,100693.81
2023-02-16T16:34:03.134Z,100692.95
2023-02-16T16:36:44.847Z,100689.70
2023-02-16T16:39:18.924Z,100693.81
2023-02-16T16:42:07.830Z,100683.02
2023-02-16T16:44:54.732Z,100681.98
2023-02-16T16:47:25.336Z,100678.89
2023-02-16T16:49:59.578Z,100681.10
2023-02-16T16:52:34.608Z,100675.27
2023-02-16T16:55:21.516Z,100674.07
2023-02-16T16:57:54.948Z,100670.30
2023-02-16T17:00:25.766Z,100665.84
2023-02-16T17:02:54.041Z,100670.63
2023-02-16T17:05:22.216Z,100667.38
2023-02-16T17:07:51.993Z,100667.04
2023-02-16T17:10:22.132Z,100663.59
2023-02-16T17:12:56.757Z,100664.27
2023-02-16T17:15:37.865Z,100662.89
2023-02-16T17:18:07.304Z,100666.13
2023-02-16T17:20:35.410Z,100665.97
2023-02-16T17:23:05.054Z,100666.11
2023-02-16T17:25:35.048Z,100668.98
2023-02-16T17:28:03.822Z,100666.93
2023-02-16T17:30:32.365Z,100666.05
2023-02-16T17:33:00.465Z,100663.48
2023-02-16T17:35:29.766Z,100667.23
2023-02-16T17:37:57.630Z,100663.12
2023-02-16T17:40:26.241Z,100665.50
2023-02-16T17:42:54.148Z,100669.93
2023-02-16T17:45:22.779Z,100667.19
2023-02-16T17:47:53.090Z,100664.42
2023-02-16T17:50:21.327Z,100667.13
2023-02-16T17:52:49.385Z,100661.49
2023-02-16T17:55:18.928Z,100656.19
2023-02-16T17:57:46.888Z,100657.02
2023-02-16T18:00:20.266Z,100659.57
2023-02-16T18:02:48.365Z,100663.13
2023-02-16T18:05:16.504Z,100663.45
2023-02-16T18:07:44.729Z,100663.60
2023-02-16T18:10:20.937Z,100662.55
2023-02-16T18:12:49.082Z,100660.30
2023-02-16T18:15:19.483Z,100659.92
2023-02-16T18:17:47.478Z,100658.52
2023-02-16T18:20:16.421Z,100659.34
2023-02-16T18:22:44.540Z,100660.34
2023-02-16T18:25:12.703Z,100662.38
2023-02-16T18:27:40.799Z,100663.55
2023-02-16T18:30:10.111Z,100661.98
2023-02-16T18:32:38.268Z,100666.38
2023-02-16T18:35:06.526Z,100664.98
2023-02-16T18:37:35.315Z,100664.81
2023-02-16T18:40:04.622Z,100667.35
2023-02-16T18:42:33.229Z,100670.24
2023-02-16T18:45:01.241Z,100667.50
2023-02-16T18:47:29.439Z,100665.95
2023-02-16T18:49:57.468Z,100668.98
2023-02-16T18:52:25.583Z,100666.77
2023-02-16T18:54:53.954Z,100660.92
2023-02-16T18:57:22.804Z,100661.23
2023-02-16T18:59:50.723Z,100660.70
2023-02-16T19:02:18.681Z,100663.21
2023-02-16T19:04:46.838Z,100665.56
2023-02-16T19:07:15.148Z,100665.35
2023-02-16T19:09:43.069Z,100666.52
2023-02-16T19:12:10.944Z,100669.88
2023-02-16T19:14:38.857Z,100665.25
2023-02-16T19:17:06.861Z,100663.34
2023-02-16T19:19:36.200Z,100659.91
2023-02-16T19:22:04.271Z,100664.85
2023-02-16T19:24:32.288Z,100658.35
2023-02-16T19:27:00.251Z,100666.70
2023-02-16T19:29:28.306Z,100667.54
2023-02-16T19:38:08.483Z,100667.06
2023-02-16T19:40:36.523Z,100664.50
2023-02-16T19:43:04.688Z,100662.12
2023-02-16T19:45:37.340Z,100661.61
2023-02-16T19:48:05.667Z,100660.40
2023-02-16T19:50:33.786Z,100658.02
2023-02-16T19:53:01.713Z,100656.27
2023-02-16T19:55:29.777Z,100651.20
2023-02-16T19:57:57.690Z,100654.11
2023-02-16T20:00:25.536Z,100648.85
2023-02-16T20:02:53.740Z,100648.68
2023-02-16T20:05:21.852Z,100646.32
2023-02-16T20:07:49.673Z,100645.83
2023-02-16T20:10:18.009Z,100646.90
2023-02-16T20:12:45.970Z,100648.77
2023-02-16T20:15:15.473Z,100650.67
2023-02-16T20:17:43.353Z,100652.08
2023-02-16T20:20:12.412Z,100648.72
2023-02-16T20:22:40.271Z,100652.85
2023-02-16T20:25:08.576Z,100650.69
2023-02-16T20:27:36.958Z,100655.69
2023-02-16T20:30:08.953Z,100653.36
2023-02-16T20:32:37.272Z,100652.52
2023-02-16T20:35:07.572Z,100652.21
2023-02-16T20:37:35.626Z,100649.83
2023-02-16T20:40:04.483Z,100652.90
2023-02-16T20:42:32.557Z,100649.48
2023-02-16T20:45:00.634Z,100651.89
2023-02-16T20:47:28.643Z,100650.89
2023-02-16T20:49:56.582Z,100655.52
2023-02-16T20:52:24.650Z,100655.37
2023-02-16T20:54:52.728Z,100650.27
2023-02-16T20:57:26.752Z,100652.67
2023-02-16T20:59:56.185Z,100647.55
2023-02-16T21:02:24.744Z,100651.84
2023-02-16T21:04:53.126Z,100645.39
2023-02-16T21:07:23.511Z,100644.89
2023-02-16T21:09:51.875Z,100649.34
2023-02-16T21:12:19.758Z,100644.93
2023-02-16T21:14:47.637Z,100642.22
2023-02-16T21:17:15.797Z,100635.73
2023-02-16T21:19:43.925Z,100630.79
2023-02-16T21:22:11.880Z,100635.58
2023-02-16T21:24:41.014Z,100633.52
2023-02-16T21:27:10.140Z,100637.45
2023-02-16T21:29:38.952Z,100641.05
2023-02-16T21:32:07.225Z,100638.99
2023-02-16T21:34:35.878Z,100643.27
2023-02-16T21:37:04.409Z,100640.69
2023-02-16T21:39:51.065Z,100640.85
2023-02-16T21:42:19.098Z,100637.94
2023-02-16T21:44:50.101Z,100634.69
2023-02-16T21:47:36.980Z,100637.05
2023-02-16T21:50:05.695Z,100633.10
2023-02-16T21:52:33.521Z,100627.80
2023-02-16T21:55:20.338Z,100627.41
2023-02-16T21:57:49.532Z,100626.20
2023-02-16T22:00:17.761Z,100626.70
2023-02-16T22:02:45.991Z,100624.95
2023-02-16T22:05:14.049Z,100623.92
2023-02-16T22:07:42.191Z,100623.92
2023-02-16T22:10:10.734Z,100627.66
2023-02-16T22:12:38.685Z,100625.09
2023-02-16T22:15:07.367Z,100625.09
2023-02-16T22:17:35.437Z,100626.46
2023-02-16T22:20:03.810Z,100625.27
2023-02-16T22:22:31.819Z,100628.50
2023-02-16T22:24:59.785Z,100624.75
2023-02-16T22:27:27.707Z,100625.80
2023-02-16T22:29:55.679Z,100629.02
2023-02-16T22:32:23.710Z,100632.63
2023-02-16T22:34:51.628Z,100634.86
2023-02-16T22:37:19.597Z,100627.50
2023-02-16T22:39:47.616Z,100629.25
2023-02-16T22:42:15.552Z,100631.83
2023-02-16T22:44:43.625Z,100630.48
2023-02-16T22:47:11.566Z,100626.92
2023-02-16T22:49:41.695Z,100630.18
2023-02-16T22:52:11.542Z,100628.66
2023-02-16T22:54:39.472Z,100627.12
2023-02-16T22:57:07.501Z,100625.94
2023-02-16T22:59:35.861Z,100623.89
2023-02-16T23:02:03.893Z,100624.06
2023-02-16T23:04:31.841Z,100619.13
2023-02-16T23:06:59.839Z,100615.54
2023-02-16T23:09:27.800Z,100618.11
2023-02-16T23:11:55.773Z,100617.94
2023-02-16T23:14:23.665Z,100616.06
2023-02-16T23:16:54.652Z,100613.16
2023-02-16T23:19:25.480Z,100610.25
2023-02-16T23:21:54.533Z,100607.52
2023-02-16T23:24:24.147Z,100610.78
2023-02-16T23:26:53.124Z,100610.44
2023-02-16T23:29:21.481Z,100612.34
2023-02-16T23:31:50.386Z,100614.40
2023-02-16T23:34:20.080Z,100617.29
2023-02-16T23:36:48.425Z,100617.48
2023-02-16T23:39:18.628Z,100612.37
2023-02-16T23:41:46.989Z,100611.86
2023-02-16T23:44:15.133Z,100612.02
2023-02-16T23:46:42.966Z,100611.70
2023-02-16T23:49:10.993Z,100610.85
2023-02-16T23:51:38.987Z,100609.66
2023-02-16T23:54:09.280Z,100609.17
2023-02-16T23:56:37.113Z,100606.63
2023-02-16T23:59:04.939Z,100606.61
